Time;durP1;ratioP1;P1;durP2;ratioP2;P2;SDS_P1;SDS_P2;PMS_P1;PMS_P2;Temp;Humidity;BMP_temperature;BMP_pressure;BME280_temperature;BME280_humidity;BME280_pressure;Samples;Min_cycle;Max_cycle;Signal;HPM_P1;HPM_P2
2024/01/16 00:02:12;;;;;;;;;;;0.40;99.90;;;;;;4984805;28;19941;-72
2024/01/16 00:04:40;;;;;;;;;;;3.00;99.90;;;;;;4979426;28;20416;-71
2024/01/16 00:07:10;;;;;;;;;;;4.60;99.90;;;;;;4984689;28;20304;-75
2024/01/16 00:09:38;;;;;;;;;;;5.60;99.90;;;;;;4984029;28;19930;-71
2024/01/16 00:12:06;;;;;;;;;;;5.90;99.90;;;;;;4988120;28;19952;-78
2024/01/16 00:14:35;;;;;;;;;;;6.50;99.90;;;;;;4980102;28;19940;-74
2024/01/16 00:17:04;;;;;;;;;;;6.70;99.90;;;;;;4984600;28;19980;-74
2024/01/16 00:19:31;;;;;;;;;;;7.30;99.90;;;;;;4985184;28;19944;-70
2024/01/16 00:22:00;;;;;;;;;;;7.60;99.90;;;;;;4987673;28;19941;-71
2024/01/16 00:24:29;;;;;;;;;;;7.00;99.90;;;;;;4979702;28;19930;-71
2024/01/16 00:26:57;;;;;;;;;;;6.10;99.90;;;;;;4984952;28;19934;-80
2024/01/16 00:29:25;;;;;;;;;;;6.30;99.90;;;;;;4985076;28;19930;-78
2024/01/16 00:31:53;;;;;;;;;;;6.80;99.90;;;;;;4987423;28;19932;-77
2024/01/16 00:34:20;;;;;;;;;;;6.20;99.90;;;;;;4979723;28;19933;-70
2024/01/16 00:36:48;;;;;;;;;;;5.60;99.90;;;;;;4983403;28;19934;-68
2024/01/16 00:39:16;;;;;;;;;;;4.40;99.90;;;;;;4985150;28;19933;-71
2024/01/16 00:41:45;;;;;;;;;;;3.40;99.90;;;;;;4985870;28;19929;-73
2024/01/16 00:44:13;;;;;;;;;;;2.60;99.90;;;;;;4978811;28;19941;-69
2024/01/16 00:46:41;;;;;;;;;;;2.10;99.90;;;;;;4982284;28;19926;-73
2024/01/16 00:49:09;;;;;;;;;;;1.70;99.90;;;;;;4990184;28;19930;-72
2024/01/16 00:51:37;;;;;;;;;;;1.40;99.90;;;;;;4986118;28;20039;-71
2024/01/16 00:54:06;;;;;;;;;;;1.30;99.90;;;;;;4985338;28;19941;-72
2024/01/16 00:56:34;;;;;;;;;;;1.10;99.90;;;;;;4988195;28;19936;-70
2024/01/16 00:59:03;;;;;;;;;;;0.90;99.90;;;;;;4989538;28;20420;-70
2024/01/16 01:01:31;;;;;;;;;;;0.80;99.90;;;;;;4987476;28;20280;-73
2024/01/16 01:03:59;;;;;;;;;;;0.70;99.90;;;;;;4980043;28;19933;-69
2024/01/16 01:06:27;;;;;;;;;;;0.70;99.90;;;;;;4973869;28;19930;-70
2024/01/16 01:08:54;;;;;;;;;;;0.70;99.90;;;;;;4974686;28;19930;-71
2024/01/16 01:11:22;;;;;;;;;;;0.60;99.90;;;;;;4969613;28;19933;-69
2024/01/16 01:13:50;;;;;;;;;;;0.50;99.90;;;;;;4970945;28;20301;-69
2024/01/16 01:16:19;;;;;;;;;;;0.50;99.90;;;;;;4969888;28;19927;-70
2024/01/16 01:18:47;;;;;;;;;;;0.50;99.90;;;;;;4967463;28;20337;-69
2024/01/16 01:21:15;;;;;;;;;;;0.50;99.90;;;;;;4969514;28;19926;-72
2024/01/16 01:23:44;;;;;;;;;;;0.40;99.90;;;;;;4970462;28;20000;-73
2024/01/16 01:26:13;;;;;;;;;;;0.40;99.90;;;;;;4971370;28;20305;-71
2024/01/16 01:28:41;;;;;;;;;;;0.40;99.90;;;;;;4971403;28;19926;-69
2024/01/16 01:31:09;;;;;;;;;;;0.40;99.90;;;;;;4962667;28;19933;-69
2024/01/16 01:33:38;;;;;;;;;;;0.30;99.90;;;;;;4971485;28;20025;-69
2024/01/16 01:36:06;;;;;;;;;;;0.20;99.90;;;;;;4980123;28;20021;-71
2024/01/16 01:38:34;;;;;;;;;;;0.10;99.90;;;;;;4983981;28;19936;-69
2024/01/16 01:41:02;;;;;;;;;;;0.10;99.90;;;;;;4971090;28;19956;-69
2024/01/16 01:43:33;;;;;;;;;;;0.10;99.90;;;;;;4971395;28;20347;-70
2024/01/16 01:46:09;;;;;;;;;;;0.00;99.90;;;;;;4970621;28;19938;-72
2024/01/16 01:48:38;;;;;;;;;;;0.00;99.90;;;;;;4971387;28;19933;-69
2024/01/16 01:51:06;;;;;;;;;;;-0.10;99.90;;;;;;4971056;28;19927;-70
2024/01/16 01:53:35;;;;;;;;;;;0.00;99.90;;;;;;4971006;28;19930;-70
2024/01/16 01:56:05;;;;;;;;;;;-0.10;99.90;;;;;;4970684;28;19965;-70
2024/01/16 01:58:34;;;;;;;;;;;-0.10;99.90;;;;;;4971139;28;19930;-69
2024/01/16 02:01:03;;;;;;;;;;;-0.10;99.90;;;;;;4970877;28;19926;-72
2024/01/16 02:03:33;;;;;;;;;;;0.00;99.90;;;;;;4970243;28;19966;-70
2024/01/16 02:06:02;;;;;;;;;;;0.00;99.90;;;;;;4975201;28;20385;-70
2024/01/16 02:08:30;;;;;;;;;;;0.00;99.90;;;;;;4984512;28;19980;-70
2024/01/16 02:10:58;;;;;;;;;;;0.10;99.90;;;;;;4970864;28;19952;-70
2024/01/16 02:13:26;;;;;;;;;;;0.10;99.90;;;;;;4970858;28;20589;-69
2024/01/16 02:15:54;;;;;;;;;;;0.10;99.90;;;;;;4975353;28;19930;-72
2024/01/16 02:18:21;;;;;;;;;;;0.20;99.90;;;;;;4970582;28;19930;-70
2024/01/16 02:20:49;;;;;;;;;;;0.10;99.90;;;;;;4964625;28;19930;-70
2024/01/16 02:23:19;;;;;;;;;;;0.20;99.90;;;;;;4963775;28;19930;-70
2024/01/16 02:25:48;;;;;;;;;;;0.10;99.90;;;;;;4970792;28;20007;-72
2024/01/16 02:28:16;;;;;;;;;;;0.10;99.90;;;;;;4968970;28;19942;-69
2024/01/16 02:30:44;;;;;;;;;;;0.20;99.90;;;;;;4970531;28;20309;-70
2024/01/16 02:33:11;;;;;;;;;;;0.20;99.90;;;;;;4970690;28;20385;-70
2024/01/16 02:35:40;;;;;;;;;;;0.20;99.90;;;;;;4976495;28;19926;-70
2024/01/16 02:38:07;;;;;;;;;;;0.20;99.90;;;;;;4985180;28;19936;-73
2024/01/16 02:40:35;;;;;;;;;;;0.20;99.90;;;;;;4965529;28;20401;-70
2024/01/16 02:43:04;;;;;;;;;;;0.20;99.90;;;;;;4970467;28;19933;-71
2024/01/16 02:45:32;;;;;;;;;;;0.20;99.90;;;;;;4970476;28;20389;-71
2024/01/16 02:48:00;;;;;;;;;;;0.20;99.90;;;;;;4969879;28;20308;-72
2024/01/16 02:50:28;;;;;;;;;;;0.10;99.90;;;;;;4970114;28;19930;-72
2024/01/16 02:52:56;;;;;;;;;;;0.10;99.90;;;;;;4970631;28;20048;-73
2024/01/16 02:55:24;;;;;;;;;;;0.10;99.90;;;;;;4963882;28;19933;-70
2024/01/16 02:57:52;;;;;;;;;;;0.10;99.90;;;;;;4970515;28;20416;-71
2024/01/16 03:00:22;;;;;;;;;;;0.10;99.90;;;;;;4969616;28;19965;-69
2024/01/16 03:02:50;;;;;;;;;;;0.20;99.90;;;;;;4970573;28;19926;-70
2024/01/16 03:05:18;;;;;;;;;;;0.20;99.90;;;;;;4972545;28;19931;-70
2024/01/16 03:07:46;;;;;;;;;;;0.20;99.90;;;;;;4980961;28;19933;-72
2024/01/16 03:10:13;;;;;;;;;;;0.10;99.90;;;;;;4970389;28;19926;-70
2024/01/16 03:12:41;;;;;;;;;;;0.10;99.90;;;;;;4969693;28;20401;-69
2024/01/16 03:15:10;;;;;;;;;;;0.00;99.90;;;;;;4968118;28;20057;-69
2024/01/16 03:17:39;;;;;;;;;;;0.00;99.90;;;;;;4969683;28;19927;-69
2024/01/16 03:20:08;;;;;;;;;;;0.10;99.90;;;;;;4969717;28;19976;-70
2024/01/16 03:22:36;;;;;;;;;;;0.20;99.90;;;;;;4969484;28;19940;-71
2024/01/16 03:25:04;;;;;;;;;;;0.20;99.90;;;;;;4969527;28;19937;-72
2024/01/16 03:27:32;;;;;;;;;;;0.30;99.90;;;;;;4969424;28;19927;-72
2024/01/16 03:30:00;;;;;;;;;;;0.30;99.90;;;;;;4969883;28;19926;-74
2024/01/16 03:32:29;;;;;;;;;;;0.30;99.90;;;;;;4961908;28;19931;-73
2024/01/16 03:34:58;;;;;;;;;;;0.40;99.90;;;;;;4969845;28;19933;-71
2024/01/16 03:37:26;;;;;;;;;;;0.50;99.90;;;;;;4986013;28;19926;-71
2024/01/16 03:39:54;;;;;;;;;;;0.50;99.90;;;;;;4971774;28;20297;-71
2024/01/16 03:42:22;;;;;;;;;;;0.60;99.90;;;;;;4969509;28;20036;-71
2024/01/16 03:44:51;;;;;;;;;;;0.60;99.90;;;;;;4970003;28;19927;-71
2024/01/16 03:47:19;;;;;;;;;;;0.70;99.90;;;;;;4969203;28;20444;-70
2024/01/16 03:49:46;;;;;;;;;;;0.70;99.90;;;;;;4969404;28;20381;-71
2024/01/16 03:52:15;;;;;;;;;;;0.70;99.90;;;;;;4968910;28;19927;-71
2024/01/16 03:54:43;;;;;;;;;;;0.80;99.90;;;;;;4969610;28;19926;-72
2024/01/16 03:57:12;;;;;;;;;;;0.80;99.90;;;;;;4969238;28;20389;-71
2024/01/16 03:59:39;;;;;;;;;;;0.80;99.90;;;;;;4969258;28;19930;-73
2024/01/16 04:02:07;;;;;;;;;;;0.80;99.90;;;;;;4968980;28;19930;-71
2024/01/16 04:04:35;;;;;;;;;;;0.80;99.90;;;;;;4971133;28;19925;-69
2024/01/16 04:07:03;;;;;;;;;;;0.80;99.90;;;;;;4982563;28;19933;-72
2024/01/16 04:09:32;;;;;;;;;;;0.80;99.90;;;;;;4974637;28;19934;-69
2024/01/16 04:12:00;;;;;;;;;;;0.80;99.90;;;;;;4968819;28;20446;-70
2024/01/16 04:14:28;;;;;;;;;;;0.80;99.90;;;;;;4969117;28;19933;-70
2024/01/16 04:16:56;;;;;;;;;;;0.80;99.90;;;;;;4970570;28;19979;-69
2024/01/16 04:19:23;;;;;;;;;;;0.70;99.90;;;;;;4968624;28;19930;-69
2024/01/16 04:21:51;;;;;;;;;;;0.60;99.90;;;;;;4968605;28;20020;-69
2024/01/16 04:24:19;;;;;;;;;;;0.50;99.90;;;;;;4968894;28;19934;-71
2024/01/16 04:26:48;;;;;;;;;;;0.20;99.90;;;;;;4968147;28;20401;-74
2024/01/16 04:29:16;;;;;;;;;;;0.10;99.90;;;;;;4968774;28;19932;-72
2024/01/16 04:31:44;;;;;;;;;;;0.00;99.90;;;;;;4968703;28;19927;-73
2024/01/16 04:34:12;;;;;;;;;;;-0.10;99.90;;;;;;4966042;28;19926;-68
2024/01/16 04:36:40;;;;;;;;;;;-0.20;99.90;;;;;;4977832;28;19987;-74
2024/01/16 04:39:08;;;;;;;;;;;-0.20;99.90;;;;;;4976884;28;20246;-74
2024/01/16 04:41:36;;;;;;;;;;;-0.20;99.90;;;;;;4968670;28;19953;-69
2024/01/16 04:44:05;;;;;;;;;;;-0.20;99.90;;;;;;4968844;28;19992;-70
2024/01/16 04:46:33;;;;;;;;;;;-0.20;99.90;;;;;;4960418;28;19926;-69
2024/01/16 04:49:01;;;;;;;;;;;-0.20;99.90;;;;;;4969264;28;19949;-69
2024/01/16 04:51:30;;;;;;;;;;;-0.30;99.90;;;;;;4968461;28;19976;-70
2024/01/16 04:53:57;;;;;;;;;;;-0.20;99.90;;;;;;4968904;28;19933;-69
2024/01/16 04:56:25;;;;;;;;;;;-0.30;99.90;;;;;;4968180;28;20404;-69
2024/01/16 04:58:53;;;;;;;;;;;-0.30;99.90;;;;;;4968722;28;20477;-70
2024/01/16 05:01:22;;;;;;;;;;;-0.10;99.90;;;;;;4967993;28;20431;-68
2024/01/16 05:03:50;;;;;;;;;;;-0.10;99.90;;;;;;4968672;28;19934;-69
2024/01/16 05:06:18;;;;;;;;;;;-0.10;99.90;;;;;;4973924;28;19977;-69
2024/01/16 05:08:46;;;;;;;;;;;0.00;99.90;;;;;;4979900;28;19930;-70
2024/01/16 05:11:13;;;;;;;;;;;-0.10;99.90;;;;;;4965606;28;19932;-74
2024/01/16 05:13:41;;;;;;;;;;;-0.10;99.90;;;;;;4968284;28;19942;-72
2024/01/16 05:16:10;;;;;;;;;;;-0.10;99.90;;;;;;4964888;28;19930;-71
2024/01/16 05:18:42;;;;;;;;;;;-0.10;99.90;;;;;;4961050;28;19927;-73
2024/01/16 05:21:10;;;;;;;;;;;-0.10;99.90;;;;;;4968351;28;19930;-72
2024/01/16 05:23:38;;;;;;;;;;;0.00;99.90;;;;;;4991144;28;19933;-72
2024/01/16 05:26:06;;;;;;;;;;;-0.10;99.90;;;;;;4968114;28;20466;-72
2024/01/16 05:28:33;;;;;;;;;;;-0.10;99.90;;;;;;4968210;28;19954;-70
2024/01/16 05:31:01;;;;;;;;;;;0.00;99.90;;;;;;4966441;28;20389;-70
2024/01/16 05:33:29;;;;;;;;;;;0.00;99.90;;;;;;4967964;28;19940;-70
2024/01/16 05:35:59;;;;;;;;;;;0.00;99.90;;;;;;4972116;28;19926;-68
2024/01/16 05:38:27;;;;;;;;;;;0.00;99.90;;;;;;4973447;28;19926;-70
2024/01/16 05:40:55;;;;;;;;;;;0.10;99.90;;;;;;4971138;28;19937;-69
2024/01/16 05:43:22;;;;;;;;;;;0.10;99.90;;;;;;4971047;28;19953;-69
2024/01/16 05:45:51;;;;;;;;;;;0.10;99.90;;;;;;4971109;28;19953;-70
2024/01/16 05:48:19;;;;;;;;;;;0.20;99.90;;;;;;4971317;28;19934;-73
2024/01/16 05:50:47;;;;;;;;;;;0.20;99.90;;;;;;4971369;28;19933;-72
2024/01/16 05:53:16;;;;;;;;;;;0.30;99.90;;;;;;4970852;28;19949;-70
2024/01/16 05:55:45;;;;;;;;;;;0.30;99.90;;;;;;4970925;28;19980;-69
2024/01/16 05:58:12;;;;;;;;;;;0.30;99.90;;;;;;4967906;28;19926;-69
2024/01/16 06:00:41;;;;;;;;;;;0.40;99.90;;;;;;4970834;28;19965;-70
2024/01/16 06:03:09;;;;;;;;;;;0.40;99.90;;;;;;4965082;28;20412;-69
2024/01/16 06:05:37;;;;;;;;;;;0.40;99.90;;;;;;4983653;28;19927;-69
2024/01/16 06:08:05;;;;;;;;;;;0.40;99.90;;;;;;4968231;28;20013;-69
2024/01/16 06:10:34;;;;;;;;;;;0.30;99.90;;;;;;4961821;28;19930;-69
2024/01/16 06:13:02;;;;;;;;;;;0.30;99.90;;;;;;4962555;28;19942;-71
2024/01/16 06:15:30;;;;;;;;;;;0.20;99.90;;;;;;4968456;28;19934;-70
2024/01/16 06:17:58;;;;;;;;;;;0.30;99.90;;;;;;4962614;28;19937;-70
2024/01/16 06:20:28;;;;;;;;;;;0.40;99.90;;;;;;4986483;28;19933;-67
2024/01/16 06:22:56;;;;;;;;;;;0.40;99.90;;;;;;4989614;28;19934;-69
2024/01/16 06:25:24;;;;;;;;;;;0.30;99.90;;;;;;4985549;28;19934;-70
2024/01/16 06:27:52;;;;;;;;;;;0.20;99.90;;;;;;4983514;28;19934;-70
2024/01/16 06:30:20;;;;;;;;;;;0.00;99.90;;;;;;4985129;28;20706;-73
2024/01/16 06:32:48;;;;;;;;;;;-0.10;99.90;;;;;;4986511;28;19930;-72
2024/01/16 06:35:16;;;;;;;;;;;-0.10;99.90;;;;;;4985887;28;19979;-72
2024/01/16 06:37:44;;;;;;;;;;;-0.10;99.90;;;;;;4984364;28;19954;-73
2024/01/16 06:40:12;;;;;;;;;;;-0.10;99.90;;;;;;4988116;28;19932;-71
2024/01/16 06:42:40;;;;;;;;;;;0.00;99.90;;;;;;4987111;28;20604;-69
2024/01/16 06:45:11;;;;;;;;;;;0.00;99.90;;;;;;4986807;28;19933;-75
2024/01/16 06:47:39;;;;;;;;;;;-0.10;99.90;;;;;;4982522;28;19933;-75
2024/01/16 06:50:07;;;;;;;;;;;-0.20;99.90;;;;;;4986532;28;19934;-72
2024/01/16 06:52:35;;;;;;;;;;;-0.20;99.90;;;;;;4988182;28;20003;-70
2024/01/16 06:55:03;;;;;;;;;;;-0.50;99.90;;;;;;4986807;28;19930;-72
2024/01/16 06:57:31;;;;;;;;;;;-0.60;99.90;;;;;;4983455;28;20983;-72
2024/01/16 06:59:59;;;;;;;;;;;-0.70;99.90;;;;;;4985414;28;21126;-69
2024/01/16 07:02:28;;;;;;;;;;;-0.80;99.90;;;;;;4985578;28;20415;-70
2024/01/16 07:04:56;;;;;;;;;;;-0.90;99.90;;;;;;4984996;28;19932;-73
2024/01/16 07:07:27;;;;;;;;;;;-1.00;99.90;;;;;;4985697;28;19934;-72
2024/01/16 07:09:55;;;;;;;;;;;-1.00;99.90;;;;;;4987581;28;19930;-69
2024/01/16 07:12:23;;;;;;;;;;;-1.00;99.90;;;;;;4988937;28;19938;-72
2024/01/16 07:14:51;;;;;;;;;;;-1.10;99.90;;;;;;4989763;28;20434;-72
2024/01/16 07:17:19;;;;;;;;;;;-1.10;99.90;;;;;;4988456;28;19926;-71
2024/01/16 07:19:48;;;;;;;;;;;-1.10;99.90;;;;;;4985739;28;19926;-73
2024/01/16 07:22:15;;;;;;;;;;;-1.10;99.90;;;;;;4988080;28;19990;-72
2024/01/16 07:24:43;;;;;;;;;;;-1.00;99.90;;;;;;4988401;28;20492;-69
2024/01/16 07:27:11;;;;;;;;;;;-1.00;99.90;;;;;;4988627;28;19937;-76
2024/01/16 07:29:40;;;;;;;;;;;-1.10;99.90;;;;;;4982463;28;20314;-70
2024/01/16 07:32:10;;;;;;;;;;;-1.10;99.90;;;;;;5015515;22;20451;-65
2024/01/16 07:34:39;;;;;;;;;;;-1.00;99.90;;;;;;5011740;28;19926;-65
2024/01/16 07:37:08;;;;;;;;;;;-1.00;99.90;;;;;;5010014;28;20016;-66
2024/01/16 07:39:35;;;;;;;;;;;-1.00;99.90;;;;;;5010464;28;19925;-64
2024/01/16 07:42:03;;;;;;;;;;;-1.00;99.90;;;;;;5009767;28;19933;-65
2024/01/16 07:44:31;;;;;;;;;;;-1.10;99.90;;;;;;4993513;28;19926;-65
2024/01/16 07:46:59;;;;;;;;;;;-1.00;99.90;;;;;;4989967;28;19929;-66
2024/01/16 07:49:27;;;;;;;;;;;-1.00;99.90;;;;;;4990418;28;19926;-64
2024/01/16 07:51:56;;;;;;;;;;;-1.00;99.90;;;;;;4990166;28;20016;-66
2024/01/16 07:54:25;;;;;;;;;;;-1.00;99.90;;;;;;4990649;28;19971;-66
2024/01/16 07:56:53;;;;;;;;;;;-1.00;99.90;;;;;;4989742;28;20335;-64
2024/01/16 07:59:21;;;;;;;;;;;-1.00;99.90;;;;;;4989191;28;20399;-66
2024/01/16 08:01:49;;;;;;;;;;;-0.90;99.90;;;;;;4987323;28;19925;-66
2024/01/16 08:04:18;;;;;;;;;;;-0.90;99.90;;;;;;4989097;28;19926;-65
2024/01/16 08:06:46;;;;;;;;;;;-0.90;99.90;;;;;;5007019;28;20429;-66
2024/01/16 08:09:14;;;;;;;;;;;-0.90;99.90;;;;;;4994176;28;19926;-66
2024/01/16 08:11:43;;;;;;;;;;;-0.90;99.90;;;;;;4988504;28;19926;-66
2024/01/16 08:14:11;;;;;;;;;;;-0.90;99.90;;;;;;4988973;28;19929;-67
2024/01/16 08:16:39;;;;;;;;;;;-0.90;99.90;;;;;;4988205;28;19969;-66
2024/01/16 08:19:07;;;;;;;;;;;-0.80;99.90;;;;;;4988748;28;19932;-66
2024/01/16 08:21:36;;;;;;;;;;;-0.80;99.90;;;;;;4988090;28;19926;-66
2024/01/16 08:24:04;;;;;;;;;;;-0.80;99.90;;;;;;4993549;28;19926;-65
2024/01/16 08:26:31;;;;;;;;;;;-0.80;99.90;;;;;;5007498;28;19925;-66
2024/01/16 08:29:01;;;;;;;;;;;-0.80;99.90;;;;;;4996885;28;19937;-66
2024/01/16 08:31:29;;;;;;;;;;;-0.80;99.90;;;;;;4988467;28;19930;-66
2024/01/16 08:33:57;;;;;;;;;;;-0.80;99.90;;;;;;4988580;28;19929;-66
2024/01/16 08:36:25;;;;;;;;;;;-0.70;99.90;;;;;;5004978;28;20023;-65
2024/01/16 08:38:54;;;;;;;;;;;-0.70;99.90;;;;;;4996783;28;20346;-66
2024/01/16 08:41:22;;;;;;;;;;;-0.60;99.90;;;;;;4988383;28;20424;-65
2024/01/16 08:43:50;;;;;;;;;;;-0.60;99.90;;;;;;4988405;28;19926;-65
2024/01/16 08:46:21;;;;;;;;;;;-0.50;99.90;;;;;;4988138;28;19941;-65
2024/01/16 08:48:48;;;;;;;;;;;-0.50;99.90;;;;;;4988567;28;20393;-66
2024/01/16 08:51:16;;;;;;;;;;;-0.40;99.90;;;;;;4988194;28;19926;-67
2024/01/16 08:53:44;;;;;;;;;;;-0.40;99.90;;;;;;4988130;28;19926;-65
2024/01/16 08:56:13;;;;;;;;;;;-0.30;99.90;;;;;;4988216;28;19925;-65
2024/01/16 08:58:40;;;;;;;;;;;-0.30;99.90;;;;;;4988210;28;19925;-66
2024/01/16 09:01:10;;;;;;;;;;;-0.20;99.90;;;;;;4987984;28;19926;-66
2024/01/16 09:03:39;;;;;;;;;;;-0.30;99.90;;;;;;4987845;28;20278;-66
2024/01/16 09:06:07;;;;;;;;;;;-0.30;99.90;;;;;;5002286;28;19929;-66
2024/01/16 09:08:35;;;;;;;;;;;-0.20;99.90;;;;;;4999326;28;19933;-65
2024/01/16 09:11:02;;;;;;;;;;;-0.20;99.90;;;;;;4988028;28;19930;-66
2024/01/16 09:13:30;;;;;;;;;;;-0.20;99.90;;;;;;4990564;28;19926;-66
2024/01/16 09:15:58;;;;;;;;;;;-0.20;99.90;;;;;;4990982;28;20455;-66
2024/01/16 09:18:26;;;;;;;;;;;-0.20;99.90;;;;;;4991233;28;20290;-66
2024/01/16 09:20:55;;;;;;;;;;;-0.10;99.90;;;;;;4991190;28;19941;-67
2024/01/16 09:23:23;;;;;;;;;;;-0.10;99.90;;;;;;4991433;28;19926;-66
2024/01/16 09:25:51;;;;;;;;;;;-0.10;99.90;;;;;;4990902;28;19937;-66
2024/01/16 09:28:19;;;;;;;;;;;-0.10;99.90;;;;;;4991125;28;19983;-66
2024/01/16 09:30:47;;;;;;;;;;;-0.10;99.90;;;;;;4990985;28;19930;-65
2024/01/16 09:33:16;;;;;;;;;;;0.00;99.90;;;;;;4990967;28;20053;-67
2024/01/16 09:35:44;;;;;;;;;;;0.10;99.90;;;;;;5001655;28;20444;-64
2024/01/16 09:38:13;;;;;;;;;;;0.20;99.90;;;;;;5005598;28;19965;-66
2024/01/16 09:40:41;;;;;;;;;;;0.20;99.90;;;;;;4990656;28;19975;-66
2024/01/16 09:43:10;;;;;;;;;;;0.40;99.90;;;;;;4991244;28;20170;-66
2024/01/16 09:45:38;;;;;;;;;;;0.40;99.90;;;;;;4991195;28;20389;-66
2024/01/16 09:48:07;;;;;;;;;;;0.50;99.90;;;;;;4990368;28;19926;-66
2024/01/16 09:50:35;;;;;;;;;;;0.50;99.90;;;;;;4991170;28;20001;-67
2024/01/16 09:53:04;;;;;;;;;;;0.50;99.90;;;;;;4990870;28;19926;-65
2024/01/16 09:55:33;;;;;;;;;;;0.60;99.90;;;;;;4990962;28;20457;-66
2024/01/16 09:58:01;;;;;;;;;;;0.80;99.90;;;;;;4990150;28;19936;-66
2024/01/16 10:00:30;;;;;;;;;;;1.00;99.90;;;;;;4990794;28;19999;-66
2024/01/16 10:03:00;;;;;;;;;;;0.90;99.90;;;;;;4990869;28;19926;-66
2024/01/16 10:05:29;;;;;;;;;;;0.90;99.90;;;;;;4999928;28;19925;-66
2024/01/16 10:07:57;;;;;;;;;;;1.10;99.90;;;;;;5006917;28;20384;-66
2024/01/16 10:10:28;;;;;;;;;;;1.20;99.90;;;;;;4990820;28;19926;-65
2024/01/16 10:13:15;;;;;;;;;;;1.30;99.90;;;;;;4990831;28;20450;-65
2024/01/16 10:15:44;;;;;;;;;;;1.30;99.90;;;;;;4990104;28;19925;-65
2024/01/16 10:18:22;;;;;;;;;;;1.20;99.90;;;;;;4990332;28;19979;-66
2024/01/16 10:20:52;;;;;;;;;;;1.20;99.90;;;;;;4990600;28;19930;-66
2024/01/16 10:23:23;;;;;;;;;;;1.10;99.90;;;;;;4989995;28;19933;-66
2024/01/16 10:26:07;;;;;;;;;;;1.10;99.90;;;;;;4989903;28;20462;-66
2024/01/16 10:28:37;;;;;;;;;;;1.10;99.90;;;;;;4990784;28;19926;-65
2024/01/16 10:31:05;;;;;;;;;;;1.10;99.90;;;;;;4990400;28;19930;-65
2024/01/16 10:33:33;;;;;;;;;;;1.00;99.90;;;;;;4990065;28;20021;-66
2024/01/16 10:36:10;;;;;;;;;;;1.00;99.90;;;;;;5003854;28;19932;-66
2024/01/16 10:38:39;;;;;;;;;;;1.00;99.90;;;;;;5002112;28;19926;-65
2024/01/16 10:41:07;;;;;;;;;;;1.00;99.90;;;;;;4990096;28;19926;-66
2024/01/16 10:43:36;;;;;;;;;;;1.00;99.90;;;;;;4998283;28;20400;-66
2024/01/16 10:46:08;;;;;;;;;;;1.10;99.90;;;;;;4990320;28;19949;-66
2024/01/16 10:48:36;;;;;;;;;;;1.00;99.90;;;;;;4990226;28;19971;-68
2024/01/16 10:51:06;;;;;;;;;;;1.10;99.90;;;;;;4997917;28;19948;-65
2024/01/16 10:53:35;;;;;;;;;;;1.10;99.90;;;;;;4989735;28;20302;-65
2024/01/16 10:56:04;;;;;;;;;;;1.10;99.90;;;;;;4989382;28;19968;-65
2024/01/16 10:58:32;;;;;;;;;;;1.20;99.90;;;;;;4998353;28;19930;-65
2024/01/16 11:01:04;;;;;;;;;;;1.40;99.90;;;;;;4997811;28;19930;-65
2024/01/16 11:03:35;;;;;;;;;;;1.50;99.90;;;;;;4989648;28;20346;-65
2024/01/16 11:06:06;;;;;;;;;;;1.50;99.90;;;;;;5003138;28;20467;-66
2024/01/16 11:08:35;;;;;;;;;;;1.70;99.90;;;;;;5002808;28;19978;-65
2024/01/16 11:11:05;;;;;;;;;;;1.80;99.90;;;;;;4996833;28;20017;-66
2024/01/16 11:13:34;;;;;;;;;;;2.00;99.90;;;;;;4989801;28;19929;-66
2024/01/16 11:16:04;;;;;;;;;;;2.30;99.90;;;;;;4989271;28;19937;-66
2024/01/16 11:18:33;;;;;;;;;;;2.80;99.90;;;;;;4989628;28;20402;-66
2024/01/16 11:21:02;;;;;;;;;;;3.10;99.90;;;;;;4997824;28;20388;-65
2024/01/16 11:23:37;;;;;;;;;;;3.20;99.90;;;;;;4989576;28;19926;-65
2024/01/16 11:26:23;;;;;;;;;;;3.60;99.90;;;;;;4989039;28;20073;-65
2024/01/16 11:28:51;;;;;;;;;;;3.60;99.90;;;;;;4989497;28;19925;-66
2024/01/16 11:31:31;;;;;;;;;;;3.70;99.90;;;;;;4989235;28;19930;-65
2024/01/16 11:34:00;;;;;;;;;;;3.90;99.90;;;;;;4998926;28;20417;-66
2024/01/16 11:36:44;;;;;;;;;;;4.20;99.90;;;;;;4991610;28;19926;-66
2024/01/16 11:39:17;;;;;;;;;;;4.10;99.90;;;;;;4989798;28;19930;-66
2024/01/16 11:41:52;;;;;;;;;;;4.10;99.90;;;;;;4997147;28;19925;-66
2024/01/16 11:44:41;;;;;;;;;;;4.10;99.90;;;;;;5008573;28;19973;-67
2024/01/16 11:47:10;;;;;;;;;;;4.50;99.90;;;;;;4998501;28;20411;-66
2024/01/16 11:49:38;;;;;;;;;;;5.20;99.90;;;;;;4996240;28;20346;-66
2024/01/16 11:52:07;;;;;;;;;;;5.20;99.90;;;;;;5005433;28;19926;-67
2024/01/16 11:54:35;;;;;;;;;;;5.00;99.90;;;;;;4989386;28;20308;-66
2024/01/16 11:57:33;;;;;;;;;;;4.90;99.90;;;;;;4996869;28;19932;-66
2024/01/16 12:00:12;;;;;;;;;;;4.90;99.90;;;;;;4948041;28;19934;-67
2024/01/16 12:02:48;;;;;;;;;;;5.30;99.90;;;;;;4982776;28;20297;-67
2024/01/16 12:05:16;;;;;;;;;;;5.40;99.90;;;;;;4985894;28;19932;-67
2024/01/16 12:07:52;;;;;;;;;;;5.80;99.90;;;;;;4987971;28;21293;-65
2024/01/16 12:10:21;;;;;;;;;;;5.70;99.90;;;;;;4982087;28;19969;-66
2024/01/16 12:12:49;;;;;;;;;;;5.90;99.90;;;;;;5004559;28;20588;-65
2024/01/16 12:15:17;;;;;;;;;;;6.10;99.90;;;;;;4989105;28;19930;-67
2024/01/16 12:17:57;;;;;;;;;;;6.50;99.90;;;;;;4988306;28;19925;-65
2024/01/16 12:20:27;;;;;;;;;;;6.10;99.90;;;;;;4996909;28;19983;-66
2024/01/16 12:22:56;;;;;;;;;;;5.60;99.90;;;;;;4989071;28;19926;-66
2024/01/16 12:25:24;;;;;;;;;;;5.20;99.90;;;;;;5000145;28;19925;-66
2024/01/16 12:28:17;;;;;;;;;;;4.90;99.90;;;;;;4996966;28;19986;-65
2024/01/16 12:30:58;;;;;;;;;;;4.80;99.90;;;;;;4988490;28;19926;-66
2024/01/16 12:33:27;;;;;;;;;;;4.80;99.90;;;;;;4992103;28;20346;-65
2024/01/16 12:36:01;;;;;;;;;;;4.60;99.90;;;;;;5004986;28;20427;-66
2024/01/16 12:38:29;;;;;;;;;;;4.30;99.90;;;;;;5003367;28;19971;-66
2024/01/16 12:40:57;;;;;;;;;;;4.00;99.90;;;;;;4988152;28;20385;-66
2024/01/16 12:43:25;;;;;;;;;;;3.90;99.90;;;;;;4988348;28;19961;-66
2024/01/16 12:45:56;;;;;;;;;;;3.50;99.90;;;;;;4988589;28;20018;-66
2024/01/16 12:48:24;;;;;;;;;;;3.60;99.90;;;;;;4991068;28;20000;-66
2024/01/16 12:50:59;;;;;;;;;;;3.60;99.90;;;;;;4999950;28;19929;-66
2024/01/16 12:53:27;;;;;;;;;;;3.70;99.90;;;;;;4998689;28;19969;-66
2024/01/16 12:55:58;;;;;;;;;;;3.90;99.90;;;;;;4991895;28;19926;-64
2024/01/16 12:58:27;;;;;;;;;;;3.90;99.90;;;;;;4991978;28;19926;-66
2024/01/16 13:00:55;;;;;;;;;;;3.80;99.90;;;;;;4991378;28;20416;-66
2024/01/16 13:03:26;;;;;;;;;;;3.70;99.90;;;;;;4991667;28;19926;-67
2024/01/16 13:05:58;;;;;;;;;;;3.50;99.90;;;;;;5004153;28;19978;-66
2024/01/16 13:08:27;;;;;;;;;;;3.30;99.90;;;;;;5006735;28;19926;-65
2024/01/16 13:11:05;;;;;;;;;;;3.20;99.90;;;;;;4991384;28;20406;-65
2024/01/16 13:13:32;;;;;;;;;;;3.10;99.90;;;;;;4996421;28;19936;-66
2024/01/16 13:16:01;;;;;;;;;;;3.10;99.90;;;;;;4993657;28;20304;-65
2024/01/16 13:18:30;;;;;;;;;;;3.00;99.90;;;;;;4991454;28;20373;-64
2024/01/16 13:20:59;;;;;;;;;;;3.00;99.90;;;;;;4999117;28;19926;-65
2024/01/16 13:23:28;;;;;;;;;;;3.10;99.90;;;;;;4991134;28;19930;-65
2024/01/16 13:25:56;;;;;;;;;;;3.20;99.90;;;;;;4990801;28;20323;-66
2024/01/16 13:28:24;;;;;;;;;;;3.30;99.90;;;;;;4991547;28;19992;-66
2024/01/16 13:30:53;;;;;;;;;;;3.30;99.90;;;;;;4999548;28;20470;-65
2024/01/16 13:33:23;;;;;;;;;;;3.40;99.90;;;;;;4991321;28;19925;-65
2024/01/16 13:35:52;;;;;;;;;;;3.50;99.90;;;;;;5003091;28;19933;-66
2024/01/16 13:38:21;;;;;;;;;;;3.50;99.90;;;;;;5007287;28;20029;-66
2024/01/16 13:40:50;;;;;;;;;;;3.60;99.90;;;;;;4991325;28;20370;-65
2024/01/16 13:43:19;;;;;;;;;;;3.50;99.90;;;;;;4990771;28;20413;-66
2024/01/16 13:45:49;;;;;;;;;;;3.60;99.90;;;;;;4990912;28;20449;-65
2024/01/16 13:48:17;;;;;;;;;;;3.60;99.90;;;;;;4990857;28;19934;-67
2024/01/16 13:50:45;;;;;;;;;;;3.60;99.90;;;;;;4999025;28;20414;-66
2024/01/16 13:53:13;;;;;;;;;;;3.50;99.90;;;;;;4990892;28;19929;-66
2024/01/16 13:55:43;;;;;;;;;;;3.40;99.90;;;;;;4997043;28;20020;-66
2024/01/16 13:58:10;;;;;;;;;;;3.20;99.90;;;;;;4991967;28;19926;-66
2024/01/16 14:00:38;;;;;;;;;;;3.00;99.90;;;;;;4990585;28;20313;-66
2024/01/16 14:03:07;;;;;;;;;;;2.90;99.90;;;;;;4990345;28;19933;-67
2024/01/16 14:05:36;;;;;;;;;;;2.70;99.90;;;;;;5001065;28;19929;-67
2024/01/16 14:08:04;;;;;;;;;;;2.60;99.90;;;;;;5009102;28;19926;-66
2024/01/16 14:10:32;;;;;;;;;;;2.50;99.90;;;;;;4990900;28;19925;-66
2024/01/16 14:13:01;;;;;;;;;;;2.40;99.90;;;;;;4990652;28;19926;-66
2024/01/16 14:15:29;;;;;;;;;;;2.40;99.90;;;;;;4990728;28;19926;-66
2024/01/16 14:17:57;;;;;;;;;;;2.30;99.90;;;;;;4997796;28;19933;-66
2024/01/16 14:20:26;;;;;;;;;;;2.20;99.90;;;;;;4990486;28;19926;-65
2024/01/16 14:22:56;;;;;;;;;;;2.20;99.90;;;;;;4990491;28;20486;-66
2024/01/16 14:25:23;;;;;;;;;;;2.20;99.90;;;;;;4990307;28;19925;-66
2024/01/16 14:27:57;;;;;;;;;;;2.10;99.90;;;;;;4990326;28;20377;-66
2024/01/16 14:30:27;;;;;;;;;;;2.10;99.90;;;;;;4990352;28;19925;-66
2024/01/16 14:32:56;;;;;;;;;;;2.10;99.90;;;;;;4990111;28;19933;-67
2024/01/16 14:35:24;;;;;;;;;;;2.00;99.90;;;;;;4998723;28;19926;-68
2024/01/16 14:37:53;;;;;;;;;;;2.10;99.90;;;;;;5009658;28;19932;-66